createdAt,value
2019-03-30T00:00:04.029Z,0
2019-03-30T00:01:03.818Z,0
2019-03-30T00:02:04.752Z,0
2019-03-30T00:03:05.237Z,0
2019-03-30T00:04:05.720Z,0
2019-03-30T00:05:06.754Z,0
2019-03-30T00:06:07.795Z,0
2019-03-30T00:07:08.391Z,0
2019-03-30T00:08:08.969Z,0
2019-03-30T00:09:10.010Z,0
2019-03-30T00:10:10.498Z,0
2019-03-30T00:11:11.251Z,0
2019-03-30T00:12:11.749Z,0
2019-03-30T00:13:11.509Z,0
2019-03-30T00:14:12.601Z,0
2019-03-30T00:15:12.359Z,0
2019-03-30T00:16:12.844Z,0
2019-03-30T00:17:13.605Z,0
2019-03-30T00:18:14.131Z,0
2019-03-30T00:19:15.548Z,0
2019-03-30T00:20:16.033Z,0
2019-03-30T00:21:16.524Z,0
2019-03-30T00:22:18.281Z,0
2019-03-30T00:23:18.042Z,0
2019-03-30T00:24:19.074Z,0
2019-03-30T00:25:19.554Z,0
2019-03-30T00:26:19.757Z,0
2019-03-30T00:27:20.794Z,0
2019-03-30T00:28:21.552Z,0
2019-03-30T00:29:22.315Z,0
2019-03-30T00:30:22.794Z,0
2019-03-30T00:31:24.108Z,0
2019-03-30T00:32:24.313Z,0
2019-03-30T00:33:25.071Z,0
2019-03-30T00:34:25.832Z,0
2019-03-30T00:35:26.319Z,0
2019-03-30T00:36:27.359Z,0
2019-03-30T00:37:28.115Z,0
2019-03-30T00:38:28.597Z,0
2019-03-30T00:39:29.077Z,0
2019-03-30T00:40:29.600Z,0
2019-03-30T00:41:30.075Z,0
2019-03-30T00:42:31.067Z,0
2019-03-30T00:43:31.551Z,0
2019-03-30T00:44:31.748Z,0
2019-03-30T00:45:31.955Z,0
2019-03-30T00:46:32.251Z,0
2019-03-30T00:47:33.010Z,0
2019-03-30T00:48:34.059Z,0
2019-03-30T00:49:48.061Z,0
2019-03-30T00:49:51.254Z,0
2019-03-30T00:49:55.516Z,0
2019-03-30T00:50:55.358Z,0
2019-03-30T00:51:56.117Z,0
2019-03-30T00:52:56.434Z,0
2019-03-30T00:53:56.911Z,0
2019-03-30T00:54:57.390Z,0
2019-03-30T00:55:58.146Z,0
2019-03-30T00:56:58.626Z,0
2019-03-30T00:57:59.663Z,0
2019-03-30T00:59:00.423Z,0
2019-03-30T01:00:01.740Z,0
2019-03-30T01:01:02.254Z,0
2019-03-30T01:02:03.298Z,0
2019-03-30T01:03:04.061Z,0
2019-03-30T01:04:04.853Z,0
2019-03-30T01:05:05.610Z,0
2019-03-30T01:06:06.112Z,0
2019-03-30T01:07:06.873Z,0
2019-03-30T01:08:07.633Z,0
2019-03-30T01:09:07.834Z,0
2019-03-30T01:10:08.596Z,0
2019-03-30T01:11:08.339Z,0
2019-03-30T01:12:08.550Z,0
2019-03-30T01:13:09.030Z,0
2019-03-30T01:14:09.510Z,0
2019-03-30T01:15:10.558Z,0
2019-03-30T01:16:11.319Z,0
2019-03-30T01:17:12.072Z,0
2019-03-30T01:18:12.558Z,0
2019-03-30T01:19:13.038Z,0
2019-03-30T01:20:13.515Z,0
2019-03-30T01:21:14.443Z,0
2019-03-30T01:22:15.200Z,0
2019-03-30T01:23:16.011Z,0
2019-03-30T01:24:16.772Z,0
2019-03-30T01:25:17.257Z,0
2019-03-30T01:26:17.737Z,0
2019-03-30T01:27:17.951Z,0
2019-03-30T01:28:18.981Z,0
2019-03-30T01:29:19.748Z,0
2019-03-30T01:30:25.247Z,0
2019-03-30T01:31:26.090Z,0
2019-03-30T01:32:26.411Z,0
2019-03-30T01:33:27.730Z,0
2019-03-30T01:34:28.488Z,0
2019-03-30T01:35:30.138Z,0
2019-03-30T01:36:29.932Z,0
2019-03-30T01:37:30.415Z,0
2019-03-30T01:38:30.890Z,0
2019-03-30T01:39:31.383Z,0
2019-03-30T01:40:32.970Z,0
2019-03-30T01:41:33.614Z,0
2019-03-30T01:42:34.652Z,0
2019-03-30T01:43:35.423Z,0
2019-03-30T01:44:36.473Z,0
2019-03-30T01:45:37.343Z,0
2019-03-30T01:46:38.100Z,0
2019-03-30T01:47:38.864Z,0
2019-03-30T01:48:39.343Z,0
2019-03-30T01:49:39.825Z,0
2019-03-30T01:50:40.862Z,0
2019-03-30T01:51:40.510Z,0
2019-03-30T01:52:41.270Z,0
2019-03-30T01:53:42.024Z,0
2019-03-30T01:54:42.786Z,0
2019-03-30T01:55:44.096Z,0
2019-03-30T01:56:44.854Z,0
2019-03-30T01:57:46.445Z,0
2019-03-30T01:58:46.544Z,0
2019-03-30T01:59:47.718Z,0
2019-03-30T02:00:48.331Z,0
2019-03-30T02:01:48.236Z,0
2019-03-30T02:02:48.999Z,0
2019-03-30T02:03:50.106Z,0
2019-03-30T02:04:50.617Z,0
2019-03-30T02:05:51.664Z,0
2019-03-30T02:06:52.695Z,0
2019-03-30T02:07:54.026Z,0
2019-03-30T02:08:54.503Z,0
2019-03-30T02:09:55.530Z,0
2019-03-30T02:10:56.010Z,0
2019-03-30T02:11:56.369Z,0
2019-03-30T02:12:56.852Z,0
2019-03-30T02:13:57.402Z,0
2019-03-30T02:14:59.025Z,0
2019-03-30T02:15:59.504Z,0
2019-03-30T02:16:59.998Z,0
2019-03-30T02:18:00.480Z,0
2019-03-30T02:19:00.679Z,0
2019-03-30T02:20:02.202Z,0
2019-03-30T02:21:03.806Z,0
2019-03-30T02:22:04.306Z,0
2019-03-30T02:23:04.782Z,0
2019-03-30T02:24:05.265Z,0
2019-03-30T02:25:06.594Z,0
2019-03-30T02:26:07.073Z,0
2019-03-30T02:27:07.845Z,0
2019-03-30T02:28:09.293Z,0
2019-03-30T02:29:10.048Z,0
2019-03-30T02:30:11.397Z,0
2019-03-30T02:31:12.485Z,0
2019-03-30T02:32:14.140Z,0
2019-03-30T02:33:14.481Z,0
2019-03-30T02:34:15.827Z,0
2019-03-30T02:35:16.146Z,0
2019-03-30T02:36:17.684Z,0
2019-03-30T02:37:19.021Z,0
2019-03-30T02:38:20.623Z,0
2019-03-30T02:39:20.258Z,0
2019-03-30T02:40:21.593Z,0
2019-03-30T02:41:22.078Z,0
2019-03-30T02:42:22.866Z,0
2019-03-30T02:43:23.496Z,0
2019-03-30T02:44:24.377Z,0
2019-03-30T02:45:24.449Z,0
2019-03-30T02:46:25.090Z,0
2019-03-30T02:47:25.686Z,0
2019-03-30T02:48:27.297Z,0
2019-03-30T02:49:27.627Z,0
2019-03-30T02:50:28.712Z,0
2019-03-30T02:51:28.487Z,0
2019-03-30T02:52:29.360Z,0
2019-03-30T02:53:31.245Z,0
2019-03-30T02:54:31.072Z,0
2019-03-30T02:55:32.440Z,0
2019-03-30T02:56:32.755Z,0
2019-03-30T02:57:34.389Z,0
2019-03-30T02:58:35.739Z,0
2019-03-30T02:59:36.383Z,0
2019-03-30T03:00:37.369Z,0
2019-03-30T03:01:38.752Z,0
2019-03-30T03:02:39.835Z,0
2019-03-30T03:03:40.625Z,0
2019-03-30T03:04:41.668Z,0
2019-03-30T03:05:43.029Z,0
2019-03-30T03:06:43.942Z,0
2019-03-30T03:07:43.713Z,0
2019-03-30T03:08:44.803Z,0
2019-03-30T03:09:45.850Z,0
2019-03-30T03:10:46.159Z,0
2019-03-30T03:11:46.195Z,0
2019-03-30T03:12:46.714Z,0
2019-03-30T03:13:48.334Z,0
2019-03-30T03:14:48.120Z,0
2019-03-30T03:15:48.752Z,0
2019-03-30T03:16:49.795Z,0
2019-03-30T03:17:50.183Z,0
2019-03-30T03:18:51.249Z,0
2019-03-30T03:19:51.612Z,0
2019-03-30T03:21:13.788Z,0
2019-03-30T03:22:14.052Z,0
2019-03-30T03:23:14.087Z,0
2019-03-30T03:24:15.346Z,0
2019-03-30T03:25:15.392Z,0
2019-03-30T03:26:15.520Z,0
2019-03-30T03:27:16.573Z,0
2019-03-30T03:28:17.720Z,0
2019-03-30T03:29:18.765Z,0
2019-03-30T03:30:20.401Z,0
2019-03-30T03:31:21.253Z,0
2019-03-30T03:32:22.161Z,0
2019-03-30T03:33:23.057Z,0
2019-03-30T03:34:23.914Z,0
2019-03-30T03:35:24.366Z,0
2019-03-30T03:36:25.271Z,0
2019-03-30T03:37:48.740Z,0
2019-03-30T03:38:47.385Z,0
2019-03-30T03:39:47.426Z,0
2019-03-30T03:40:48.785Z,0
2019-03-30T03:41:50.111Z,0
2019-03-30T03:42:51.469Z,0
2019-03-30T03:43:52.637Z,0
2019-03-30T03:44:52.775Z,0
2019-03-30T03:45:54.720Z,0
2019-03-30T03:46:54.226Z,0
2019-03-30T03:47:56.130Z,0
2019-03-30T03:48:56.769Z,0
2019-03-30T03:49:57.657Z,0
2019-03-30T03:50:58.326Z,0
2019-03-30T03:51:58.947Z,0
2019-03-30T03:52:59.738Z,0
2019-03-30T03:54:00.394Z,0
2019-03-30T03:55:01.874Z,0
2019-03-30T03:56:01.210Z,0
2019-03-30T03:57:02.047Z,0
2019-03-30T03:58:02.963Z,0
2019-03-30T03:59:04.197Z,0
2019-03-30T04:00:04.582Z,0
2019-03-30T04:01:04.974Z,0
2019-03-30T04:02:06.294Z,0
2019-03-30T04:03:07.337Z,0
2019-03-30T04:04:08.503Z,0
2019-03-30T04:05:09.453Z,0
2019-03-30T04:06:09.181Z,0
2019-03-30T04:07:09.241Z,0
2019-03-30T04:08:11.007Z,0
2019-03-30T04:09:11.656Z,0
2019-03-30T04:10:12.573Z,0
2019-03-30T04:11:13.247Z,0
2019-03-30T04:12:13.332Z,0
2019-03-30T04:13:13.651Z,0
2019-03-30T04:14:13.690Z,0
2019-03-30T04:15:15.280Z,0
2019-03-30T04:16:15.732Z,0
2019-03-30T04:17:16.517Z,0
2019-03-30T04:18:17.588Z,0
2019-03-30T04:19:18.585Z,0
2019-03-30T04:20:19.910Z,0
2019-03-30T04:21:20.783Z,0
2019-03-30T04:22:21.372Z,0
2019-03-30T04:23:21.141Z,0
2019-03-30T04:24:22.215Z,0
2019-03-30T04:25:22.860Z,0
2019-03-30T04:26:23.220Z,0
2019-03-30T04:27:23.408Z,0
2019-03-30T04:28:24.849Z,0
2019-03-30T04:29:25.209Z,4
2019-03-30T04:30:25.282Z,0
2019-03-30T04:31:26.333Z,0
2019-03-30T04:32:27.401Z,0
2019-03-30T04:33:27.887Z,4
2019-03-30T04:34:29.215Z,0
2019-03-30T04:35:30.147Z,4
2019-03-30T04:36:30.470Z,0
2019-03-30T04:37:31.347Z,4
2019-03-30T04:38:31.947Z,4
2019-03-30T04:39:32.495Z,8
2019-03-30T04:40:32.245Z,8
2019-03-30T04:41:33.012Z,8
2019-03-30T04:42:33.782Z,8
2019-03-30T04:43:34.551Z,12
2019-03-30T04:44:35.884Z,12
2019-03-30T04:45:37.220Z,16
2019-03-30T04:46:37.270Z,20
2019-03-30T04:47:38.583Z,24
2019-03-30T04:48:39.367Z,28
2019-03-30T04:49:40.989Z,32
2019-03-30T04:50:40.804Z,36
2019-03-30T04:51:41.285Z,44
2019-03-30T04:52:42.409Z,48
2019-03-30T04:53:42.896Z,52
2019-03-30T04:54:43.570Z,60
2019-03-30T04:55:44.612Z,68
2019-03-30T04:56:45.657Z,76
2019-03-30T04:57:50.876Z,88
2019-03-30T04:58:46.362Z,92
2019-03-30T04:59:46.818Z,104
2019-03-30T05:00:47.304Z,116
2019-03-30T05:01:48.072Z,132
2019-03-30T05:02:48.874Z,148
2019-03-30T05:03:50.197Z,164
2019-03-30T05:04:50.774Z,180
2019-03-30T05:05:51.830Z,196
2019-03-30T05:06:52.415Z,220
2019-03-30T05:07:53.733Z,244
2019-03-30T05:08:54.781Z,268
2019-03-30T05:09:55.427Z,304
2019-03-30T05:10:55.908Z,336
2019-03-30T05:11:56.399Z,372
2019-03-30T05:12:57.180Z,400
2019-03-30T05:13:57.261Z,432
2019-03-30T05:14:57.746Z,472
2019-03-30T05:15:58.509Z,512
2019-03-30T05:16:59.572Z,564
2019-03-30T05:18:00.610Z,612
2019-03-30T05:19:01.655Z,660
2019-03-30T05:20:02.027Z,708
2019-03-30T05:21:02.801Z,748
2019-03-30T05:22:18.488Z,796
2019-03-30T05:23:13.573Z,828
2019-03-30T05:24:14.079Z,876
2019-03-30T05:25:14.656Z,920
2019-03-30T05:26:15.139Z,952
2019-03-30T05:27:15.619Z,984
2019-03-30T05:28:16.510Z,1020
2019-03-30T05:29:17.834Z,1064
2019-03-30T05:30:18.596Z,1108
2019-03-30T05:31:19.362Z,1148
2019-03-30T05:32:19.573Z,1180
2019-03-30T05:33:07.683Z,1216
2019-03-30T05:34:03.269Z,1284
2019-03-30T05:35:04.325Z,1372
2019-03-30T05:36:05.093Z,1448
2019-03-30T05:37:05.964Z,1508
2019-03-30T05:38:06.465Z,1596
2019-03-30T05:39:07.870Z,1672
2019-03-30T05:40:08.366Z,1728
2019-03-30T05:41:09.691Z,1772
2019-03-30T05:42:10.014Z,1816
2019-03-30T05:43:11.331Z,1856
2019-03-30T05:44:12.462Z,1900
2019-03-30T05:45:13.228Z,1952
2019-03-30T05:46:14.004Z,2004
2019-03-30T05:47:14.488Z,2056
2019-03-30T05:48:15.809Z,2104
2019-03-30T05:49:15.848Z,2152
2019-03-30T05:50:16.608Z,2216
2019-03-30T05:51:17.371Z,2288
2019-03-30T05:52:28.246Z,2380
2019-03-30T05:53:29.014Z,2452
2019-03-30T05:54:30.072Z,2528
2019-03-30T05:55:30.281Z,2616
2019-03-30T05:56:31.877Z,2688
2019-03-30T05:57:31.926Z,2760
2019-03-30T05:58:32.981Z,2832
2019-03-30T05:59:33.489Z,2900
2019-03-30T06:00:33.983Z,2968
2019-03-30T06:01:35.028Z,3036
2019-03-30T06:02:36.076Z,3108
2019-03-30T06:03:36.610Z,3176
2019-03-30T06:04:37.370Z,3240
2019-03-30T06:05:38.134Z,3304
2019-03-30T06:06:38.397Z,3372
2019-03-30T06:07:39.160Z,3444
2019-03-30T06:08:39.368Z,3512
2019-03-30T06:09:40.436Z,3580
2019-03-30T06:10:41.199Z,3652
2019-03-30T06:11:41.958Z,3724
2019-03-30T06:12:42.443Z,3812
2019-03-30T06:13:43.655Z,3896
2019-03-30T06:14:44.156Z,3984
2019-03-30T06:15:44.923Z,4784
2019-03-30T06:16:45.688Z,16800
2019-03-30T06:17:46.199Z,34400
2019-03-30T06:18:47.034Z,41344
2019-03-30T06:19:47.243Z,35584
2019-03-30T06:20:48.080Z,36096
2019-03-30T06:21:48.895Z,37920
2019-03-30T06:22:49.948Z,46336
2019-03-30T06:23:50.186Z,43744
2019-03-30T06:24:51.521Z,44640
2019-03-30T06:25:52.294Z,47936
2019-03-30T06:26:52.789Z,45120
2019-03-30T06:27:53.285Z,45440
2019-03-30T06:28:53.789Z,43776
2019-03-30T06:29:54.309Z,44160
2019-03-30T06:30:54.897Z,44992
2019-03-30T06:31:56.529Z,46912
2019-03-30T06:32:55.349Z,47680
2019-03-30T06:33:55.878Z,48864
2019-03-30T06:34:56.374Z,51072
2019-03-30T06:35:57.428Z,49888
2019-03-30T06:36:58.480Z,49152
2019-03-30T06:37:59.344Z,48224
2019-03-30T06:39:00.431Z,45408
2019-03-30T06:39:59.929Z,45600
2019-03-30T06:41:01.308Z,42880
2019-03-30T06:42:01.808Z,44832
2019-03-30T06:43:02.866Z,48640
2019-03-30T06:44:03.849Z,45792
2019-03-30T06:45:04.639Z,46624
2019-03-30T06:46:05.424Z,50432
2019-03-30T06:47:05.670Z,54336
2019-03-30T06:48:06.466Z,56512
2019-03-30T06:49:06.965Z,43200
2019-03-30T06:50:07.468Z,34848
2019-03-30T06:51:08.255Z,40832
2019-03-30T06:52:09.412Z,35904
2019-03-30T06:53:10.470Z,32800
2019-03-30T06:54:10.775Z,35200
2019-03-30T06:55:11.856Z,30752
2019-03-30T06:56:12.489Z,24736
2019-03-30T06:57:12.988Z,36480
2019-03-30T06:58:13.780Z,28352
2019-03-30T06:59:14.006Z,24416
2019-03-30T07:00:14.820Z,34016
2019-03-30T07:01:16.437Z,35904
2019-03-30T07:02:16.221Z,37728
2019-03-30T07:03:17.557Z,43232
2019-03-30T07:04:18.065Z,40896
2019-03-30T07:05:18.306Z,35200
2019-03-30T07:06:19.375Z,37056
2019-03-30T07:07:19.880Z,34528
2019-03-30T07:08:20.104Z,29504
2019-03-30T07:09:22.012Z,24160
2019-03-30T07:10:22.363Z,16640
2019-03-30T07:11:23.296Z,14044
2019-03-30T07:12:23.796Z,12108
2019-03-30T07:13:24.400Z,11776
2019-03-30T07:14:25.643Z,12160
2019-03-30T07:15:26.148Z,13312
2019-03-30T07:16:26.937Z,12692
2019-03-30T07:17:27.999Z,12640
2019-03-30T07:18:28.332Z,14048
2019-03-30T07:19:28.830Z,14400
2019-03-30T07:20:29.334Z,14304
2019-03-30T07:21:30.399Z,13888
2019-03-30T07:22:30.907Z,17376
2019-03-30T07:23:31.424Z,23520
2019-03-30T07:24:31.946Z,35200
2019-03-30T07:25:33.287Z,41408
2019-03-30T07:26:34.119Z,40512
2019-03-30T07:27:34.351Z,43008
2019-03-30T07:28:34.855Z,29696
2019-03-30T07:29:35.353Z,17760
2019-03-30T07:30:36.128Z,9348
2019-03-30T07:31:37.544Z,7520
2019-03-30T07:32:38.051Z,10456
2019-03-30T07:33:38.824Z,15104
2019-03-30T07:34:43.139Z,17472
2019-03-30T07:35:40.199Z,23104
2019-03-30T07:36:40.701Z,22112
2019-03-30T07:37:41.213Z,29088
2019-03-30T07:38:41.436Z,29056
2019-03-30T07:39:42.508Z,35168
2019-03-30T07:40:42.847Z,41504
2019-03-30T07:41:43.694Z,34720
2019-03-30T07:42:44.469Z,21632
2019-03-30T07:43:44.695Z,21504
2019-03-30T07:44:45.926Z,22880
2019-03-30T07:45:45.990Z,19808
2019-03-30T07:46:46.219Z,20352
2019-03-30T07:47:46.718Z,18464
2019-03-30T07:48:46.944Z,17888
2019-03-30T07:49:47.445Z,15936
2019-03-30T07:50:48.497Z,15424
2019-03-30T07:51:49.284Z,15424
2019-03-30T07:52:49.787Z,16192
2019-03-30T07:53:50.580Z,15104
2019-03-30T07:54:51.395Z,14752
2019-03-30T07:55:52.452Z,15072
2019-03-30T07:56:13.799Z,14944
2019-03-30T07:57:19.067Z,14208
2019-03-30T07:57:23.917Z,13932
2019-03-30T07:58:24.689Z,13760
2019-03-30T07:59:25.232Z,12892
2019-03-30T08:00:32.595Z,18240
2019-03-30T08:00:36.526Z,18464
2019-03-30T08:01:37.214Z,19776
2019-03-30T08:02:37.556Z,22624
2019-03-30T08:03:37.794Z,27136
2019-03-30T08:04:38.021Z,33536
2019-03-30T08:05:38.810Z,38912
2019-03-30T08:06:39.318Z,29440
2019-03-30T08:07:40.648Z,24640
2019-03-30T08:08:41.798Z,24704
2019-03-30T08:09:42.879Z,21376
2019-03-30T08:10:43.953Z,23392
2019-03-30T08:11:43.821Z,27264
2019-03-30T08:12:44.330Z,30912
2019-03-30T08:13:45.399Z,34752
2019-03-30T08:14:47.044Z,29888
2019-03-30T08:15:47.268Z,31040
2019-03-30T08:16:48.602Z,36576
2019-03-30T08:17:48.860Z,45440
2019-03-30T08:18:49.643Z,56576
2019-03-30T08:19:52.190Z,54496
2019-03-30T08:20:52.765Z,42592
2019-03-30T08:21:53.063Z,37760
2019-03-30T08:22:53.858Z,32960
2019-03-30T08:23:54.087Z,28832
2019-03-30T08:24:55.145Z,25920
2019-03-30T08:25:55.699Z,22592
2019-03-30T08:26:56.201Z,15328
2019-03-30T08:27:57.562Z,13280
2019-03-30T08:28:57.905Z,14912
2019-03-30T08:29:58.686Z,13404
2019-03-30T08:30:59.205Z,11628
2019-03-30T08:32:00.169Z,15168
2019-03-30T08:33:00.675Z,16256
2019-03-30T08:34:01.182Z,15840
2019-03-30T08:35:02.571Z,15456
2019-03-30T08:36:02.480Z,15648
2019-03-30T08:37:03.582Z,17440
2019-03-30T08:38:04.089Z,21856
2019-03-30T08:39:05.004Z,25152
2019-03-30T08:40:04.510Z,26784
2019-03-30T08:41:05.304Z,28064
2019-03-30T08:42:05.602Z,26624
2019-03-30T08:43:06.101Z,29856
2019-03-30T08:44:06.919Z,27328
2019-03-30T08:45:07.144Z,21344
2019-03-30T08:46:07.923Z,20480
2019-03-30T08:47:08.149Z,23712
2019-03-30T08:48:09.266Z,13860
2019-03-30T08:49:10.325Z,9268
2019-03-30T08:50:10.830Z,10808
2019-03-30T08:51:11.356Z,9728
2019-03-30T08:52:12.065Z,8620
2019-03-30T08:53:12.842Z,7300
2019-03-30T08:54:14.693Z,18144
2019-03-30T08:55:14.677Z,30944
2019-03-30T08:56:15.178Z,37312
2019-03-30T08:57:15.682Z,35904
2019-03-30T08:58:17.623Z,39840
2019-03-30T08:59:17.632Z,41792
2019-03-30T09:00:18.025Z,39008
2019-03-30T09:01:19.052Z,43840
2019-03-30T09:02:22.326Z,25536
2019-03-30T09:03:25.349Z,21344
2019-03-30T09:03:43.917Z,29504
2019-03-30T09:04:41.311Z,43072
2019-03-30T09:05:42.404Z,37376
2019-03-30T09:06:42.907Z,24800
2019-03-30T09:07:43.689Z,26592
2019-03-30T09:08:44.194Z,29280
2019-03-30T09:09:45.252Z,21952
2019-03-30T09:10:46.126Z,13664
2019-03-30T09:11:46.628Z,15808
2019-03-30T09:12:47.129Z,18560
2019-03-30T09:13:47.630Z,15168
2019-03-30T09:14:48.162Z,13584
2019-03-30T09:15:48.945Z,10696
2019-03-30T09:16:49.998Z,9572
2019-03-30T09:17:50.222Z,14612
2019-03-30T09:18:51.572Z,22464
2019-03-30T09:19:52.350Z,26848
2019-03-30T09:20:53.136Z,25472
2019-03-30T09:21:54.303Z,24000
2019-03-30T09:22:54.871Z,24064
2019-03-30T09:24:12.053Z,24384
2019-03-30T09:24:17.316Z,24736
2019-03-30T09:25:17.180Z,26848
2019-03-30T09:26:18.783Z,25952
2019-03-30T09:27:19.560Z,26432
2019-03-30T09:28:19.785Z,30720
2019-03-30T09:29:21.117Z,35776
2019-03-30T09:30:21.910Z,34336
2019-03-30T09:31:22.317Z,37600
2019-03-30T09:32:22.831Z,38016
2019-03-30T09:33:25.189Z,34496
2019-03-30T09:34:24.769Z,30656
2019-03-30T09:35:25.782Z,31616
2019-03-30T09:36:27.407Z,19776
2019-03-30T09:37:28.502Z,16000
2019-03-30T09:38:29.042Z,22400
2019-03-30T09:39:30.615Z,26272
2019-03-30T09:40:32.103Z,26944
2019-03-30T09:41:31.563Z,30720
2019-03-30T09:42:32.617Z,34240
2019-03-30T09:43:32.122Z,37216
2019-03-30T09:44:33.265Z,39584
2019-03-30T09:45:32.997Z,35424
2019-03-30T09:46:33.226Z,35648
2019-03-30T09:47:33.730Z,33120
2019-03-30T09:48:34.232Z,34176
2019-03-30T09:49:34.823Z,29472
2019-03-30T09:50:35.342Z,25408
2019-03-30T09:51:35.988Z,32800
2019-03-30T09:52:37.393Z,32160
2019-03-30T09:53:37.176Z,33920
2019-03-30T09:54:39.709Z,37728
2019-03-30T09:55:38.917Z,35840
2019-03-30T09:56:40.272Z,30592
2019-03-30T09:57:40.868Z,22400
2019-03-30T09:58:41.652Z,22688
2019-03-30T09:59:41.880Z,28416
2019-03-30T10:00:42.131Z,28000
2019-03-30T10:01:42.922Z,21824
2019-03-30T10:02:43.895Z,20064
2019-03-30T10:03:44.758Z,26976
2019-03-30T10:04:45.266Z,26848
2019-03-30T10:05:46.361Z,25952
2019-03-30T10:06:47.145Z,29504
2019-03-30T10:07:48.162Z,30912
2019-03-30T10:08:48.556Z,32960
2019-03-30T10:09:49.502Z,34656
2019-03-30T10:10:50.851Z,35264
2019-03-30T10:11:50.908Z,36032
2019-03-30T10:12:51.787Z,35968
2019-03-30T10:13:52.136Z,34976
2019-03-30T10:14:53.028Z,34272
2019-03-30T10:15:53.245Z,35008
2019-03-30T10:16:54.303Z,33536
2019-03-30T10:17:54.609Z,29632
2019-03-30T10:18:55.687Z,23904
2019-03-30T10:20:07.097Z,17728
2019-03-30T10:21:06.895Z,14092
2019-03-30T10:22:07.688Z,12460
2019-03-30T10:23:07.815Z,11868
2019-03-30T10:24:08.350Z,11652
2019-03-30T10:25:08.851Z,11504
2019-03-30T10:26:09.077Z,11412
2019-03-30T10:27:09.682Z,11296
2019-03-30T10:28:10.390Z,11200
2019-03-30T10:29:10.930Z,11164
2019-03-30T10:30:11.658Z,11156
2019-03-30T10:31:12.240Z,11128
2019-03-30T10:32:13.550Z,11124
2019-03-30T10:33:14.915Z,11128
2019-03-30T10:34:14.766Z,11112
2019-03-30T10:35:15.823Z,11100
2019-03-30T10:36:16.888Z,11064
2019-03-30T10:37:18.038Z,11064
2019-03-30T10:38:18.847Z,11060
2019-03-30T10:39:19.132Z,11084
2019-03-30T10:40:23.039Z,11048
2019-03-30T10:41:23.116Z,11048
2019-03-30T10:42:23.997Z,11064
2019-03-30T10:43:24.778Z,11056
2019-03-30T10:44:25.291Z,11036
2019-03-30T10:45:26.092Z,11080
2019-03-30T10:46:27.033Z,11100
2019-03-30T10:47:27.273Z,11104
2019-03-30T10:48:27.782Z,11108
2019-03-30T10:49:28.141Z,11148
2019-03-30T10:50:30.190Z,11204
2019-03-30T10:51:30.756Z,11208
2019-03-30T10:52:31.079Z,11220
2019-03-30T10:53:32.171Z,11152
2019-03-30T10:54:33.233Z,11168
2019-03-30T10:55:33.830Z,11180
2019-03-30T10:56:35.014Z,11212
2019-03-30T10:57:36.173Z,11200
2019-03-30T10:58:37.889Z,11172
2019-03-30T10:59:37.989Z,11180
2019-03-30T11:00:38.054Z,11180
2019-03-30T11:01:39.555Z,11208
2019-03-30T11:02:39.518Z,11180
2019-03-30T11:03:40.307Z,11216
2019-03-30T11:04:40.862Z,11172
2019-03-30T11:05:41.406Z,11176
2019-03-30T11:06:41.932Z,11160
2019-03-30T11:07:43.113Z,11140
2019-03-30T11:08:43.717Z,11048
2019-03-30T11:09:44.299Z,11212
2019-03-30T11:10:44.806Z,11232
2019-03-30T11:11:46.083Z,11200
2019-03-30T11:12:46.866Z,11196
2019-03-30T11:13:47.653Z,11212
2019-03-30T11:14:48.886Z,11192
2019-03-30T11:15:49.683Z,11152
2019-03-30T11:16:50.155Z,11128
2019-03-30T11:17:51.583Z,11108
2019-03-30T11:18:52.483Z,11096
2019-03-30T11:19:53.611Z,11076
2019-03-30T11:20:53.807Z,11068
2019-03-30T11:21:54.348Z,11052
2019-03-30T11:22:54.934Z,11060
2019-03-30T11:23:56.081Z,11020
2019-03-30T11:25:10.101Z,10960
2019-03-30T11:26:07.055Z,10928
2019-03-30T11:27:07.575Z,10924
2019-03-30T11:28:09.313Z,10872
2019-03-30T11:29:09.422Z,10872
2019-03-30T11:30:10.204Z,10896
2019-03-30T11:31:11.841Z,10880
2019-03-30T11:32:11.347Z,10892
2019-03-30T11:33:11.582Z,10852
2019-03-30T11:34:12.540Z,10824
2019-03-30T11:35:13.480Z,10788
2019-03-30T11:36:14.113Z,10788
2019-03-30T11:37:15.297Z,10792
2019-03-30T11:38:15.802Z,10800
2019-03-30T11:39:16.592Z,10800
2019-03-30T11:40:17.104Z,10752
2019-03-30T11:41:17.795Z,10728
2019-03-30T11:42:18.641Z,10600
2019-03-30T11:43:19.250Z,10708
2019-03-30T11:44:20.050Z,10708
2019-03-30T11:45:20.564Z,10740
2019-03-30T11:46:21.486Z,10740
2019-03-30T11:47:22.629Z,10744
2019-03-30T11:48:24.266Z,10768
2019-03-30T11:49:24.049Z,10772
2019-03-30T11:50:24.832Z,10772
2019-03-30T11:51:25.966Z,10780
2019-03-30T11:52:26.278Z,10820
2019-03-30T11:53:28.218Z,10864
2019-03-30T11:54:28.099Z,10892
2019-03-30T11:55:28.971Z,10948
2019-03-30T11:56:29.518Z,10968
2019-03-30T11:57:30.175Z,10984
2019-03-30T11:58:30.960Z,11048
2019-03-30T11:59:31.081Z,11056
2019-03-30T12:00:31.862Z,11072
2019-03-30T12:01:32.147Z,11120
2019-03-30T12:02:33.277Z,11112
2019-03-30T12:03:33.517Z,11108
2019-03-30T12:04:34.347Z,11076
2019-03-30T12:05:34.873Z,11048
2019-03-30T12:06:35.979Z,11036
2019-03-30T12:07:36.494Z,10996
2019-03-30T12:08:36.766Z,10984
2019-03-30T12:09:38.123Z,10952
2019-03-30T12:10:39.462Z,10924
2019-03-30T12:11:39.247Z,10920
2019-03-30T12:12:39.750Z,10888
2019-03-30T12:13:40.808Z,10880
2019-03-30T12:14:41.313Z,10852
2019-03-30T12:15:42.375Z,10820
2019-03-30T12:16:42.863Z,10780
2019-03-30T12:17:44.478Z,10768
2019-03-30T12:18:45.300Z,10728
2019-03-30T12:19:46.916Z,10668
2019-03-30T12:20:47.482Z,10620
2019-03-30T12:21:48.104Z,10592
2019-03-30T12:22:48.639Z,10560
2019-03-30T12:23:49.140Z,10528
2019-03-30T12:24:49.649Z,10544
2019-03-30T12:25:50.151Z,10540
2019-03-30T12:26:50.974Z,10512
2019-03-30T12:27:51.762Z,10532
2019-03-30T12:28:52.618Z,10548
2019-03-30T12:29:53.138Z,10540
2019-03-30T12:30:54.211Z,10564
2019-03-30T12:31:55.004Z,10588
2019-03-30T12:32:55.421Z,10604
2019-03-30T12:33:55.651Z,10608
2019-03-30T12:34:56.156Z,10632
2019-03-30T12:35:57.509Z,10624
2019-03-30T12:36:57.889Z,10656
2019-03-30T12:37:58.708Z,10656
2019-03-30T12:39:00.052Z,10680
2019-03-30T12:40:00.589Z,10712
2019-03-30T12:41:01.212Z,10740
2019-03-30T12:42:02.302Z,10760
2019-03-30T12:43:03.402Z,10764
2019-03-30T12:44:03.909Z,10796
2019-03-30T12:45:04.427Z,10820
2019-03-30T12:46:04.948Z,10844
2019-03-30T12:47:06.158Z,10992
2019-03-30T12:48:05.972Z,12440
2019-03-30T12:49:07.042Z,15616
2019-03-30T12:50:07.547Z,18528
2019-03-30T12:51:08.056Z,18080
2019-03-30T12:52:09.039Z,16544
2019-03-30T12:53:09.269Z,15680
2019-03-30T12:54:10.883Z,15424
2019-03-30T12:55:11.386Z,15040
2019-03-30T12:56:11.963Z,14048
2019-03-30T12:57:13.221Z,12628
2019-03-30T12:58:14.004Z,11560
2019-03-30T12:59:15.142Z,11064
2019-03-30T13:00:14.925Z,10976
2019-03-30T13:01:26.168Z,10972
2019-03-30T13:02:26.704Z,10924
2019-03-30T13:03:26.928Z,10904
2019-03-30T13:04:27.717Z,10916
2019-03-30T13:05:28.773Z,10900
2019-03-30T13:06:29.831Z,10976
2019-03-30T13:07:30.176Z,11076
2019-03-30T13:08:30.993Z,11224
2019-03-30T13:09:34.610Z,11336
2019-03-30T13:10:31.544Z,11440
2019-03-30T13:11:32.260Z,11516
2019-03-30T13:12:32.347Z,11568
2019-03-30T13:13:33.411Z,11548
2019-03-30T13:14:33.913Z,11324
2019-03-30T13:15:34.977Z,11068
2019-03-30T13:16:35.197Z,10892
2019-03-30T13:17:35.722Z,10764
2019-03-30T13:18:36.814Z,10660
2019-03-30T13:19:37.316Z,10600
2019-03-30T13:20:37.541Z,10552
2019-03-30T13:21:54.589Z,10488
2019-03-30T13:21:59.741Z,10488
2019-03-30T13:22:59.594Z,10460
2019-03-30T13:24:00.139Z,10424
2019-03-30T13:25:01.638Z,10408
2019-03-30T13:26:06.372Z,10400
2019-03-30T13:27:06.970Z,10388
2019-03-30T13:28:07.217Z,10380
2019-03-30T13:29:07.773Z,10320
2019-03-30T13:30:08.287Z,10288
2019-03-30T13:31:09.937Z,10276
2019-03-30T13:32:10.023Z,10256
2019-03-30T13:33:11.103Z,10228
2019-03-30T13:34:11.607Z,10208
2019-03-30T13:35:11.912Z,10196
2019-03-30T13:36:12.909Z,10188
2019-03-30T13:37:13.127Z,10164
2019-03-30T13:38:13.633Z,10132
2019-03-30T13:39:14.698Z,10088